Time;durP1;ratioP1;P1;durP2;ratioP2;P2;SDS_P1;SDS_P2;PMS_P1;PMS_P2;Temp;Humidity;BMP_temperature;BMP_pressure;BME280_temperature;BME280_humidity;BME280_pressure;Samples;Min_cycle;Max_cycle;Signal;HPM_P1;HPM_P2
2024/03/16 00:02:53;;;;;;;7.15;4.30;;;;;;;;;;6285049;28;20055;-82
2024/03/16 00:05:56;;;;;;;6.13;4.22;;;;;;;;;;6297895;28;20052;-82
2024/03/16 00:08:57;;;;;;;;;;;;;;;;;;6302630;28;20055;-79
2024/03/16 00:11:59;;;;;;;6.40;2.83;;;;;;;;;;6301463;28;19926;-81
2024/03/16 00:15:01;;;;;;;4.53;2.80;;;;;;;;;;6306429;28;20059;-80
2024/03/16 00:18:03;;;;;;;4.85;3.00;;;;;;;;;;6305554;28;20044;-78
2024/03/16 00:21:05;;;;;;;6.93;2.92;;;;;;;;;;6303102;28;20040;-80
2024/03/16 00:24:08;;;;;;;3.67;2.45;;;;;;;;;;6303058;28;20527;-80
2024/03/16 00:27:09;;;;;;;4.93;2.70;;;;;;;;;;6300511;28;20530;-82
2024/03/16 00:30:11;;;;;;;6.13;3.00;;;;;;;;;;6314836;28;20055;-81
2024/03/16 00:33:13;;;;;;;4.60;2.50;;;;;;;;;;6292757;28;20048;-80
2024/03/16 00:36:17;;;;;;;4.97;3.00;;;;;;;;;;6309140;27;20035;-78
2024/03/16 00:39:23;;;;;;;6.38;3.28;;;;;;;;;;6309120;28;20047;-82
2024/03/16 00:42:25;;;;;;;5.13;2.95;;;;;;;;;;6294647;28;20037;-79
2024/03/16 00:45:27;;;;;;;6.05;2.85;;;;;;;;;;6284450;28;20126;-82
2024/03/16 00:48:29;;;;;;;5.15;2.50;;;;;;;;;;6300377;28;20044;-78
2024/03/16 00:51:33;;;;;;;4.30;2.08;;;;;;;;;;6300890;28;20044;-80
2024/03/16 00:54:35;;;;;;;5.88;2.13;;;;;;;;;;6309376;28;20046;-81
2024/03/16 00:57:37;;;;;;;4.53;1.92;;;;;;;;;;6290629;27;20052;-81
2024/03/16 01:00:40;;;;;;;5.20;2.25;;;;;;;;;;6304916;28;20041;-80
2024/03/16 01:03:41;;;;;;;6.68;2.33;;;;;;;;;;6296679;28;20044;-81
2024/03/16 01:06:43;;;;;;;4.72;2.55;;;;;;;;;;6304169;28;20194;-81
2024/03/16 01:09:45;;;;;;;7.97;2.45;;;;;;;;;;6313502;28;20044;-82
2024/03/16 01:12:47;;;;;;;3.65;1.95;;;;;;;;;;6317008;28;20103;-80
2024/03/16 01:15:49;;;;;;;4.15;2.15;;;;;;;;;;6334152;28;20039;-78
2024/03/16 01:18:51;;;;;;;4.40;2.95;;;;;;;;;;6333255;28;20478;-77
2024/03/16 01:21:53;;;;;;;4.00;2.00;;;;;;;;;;6312465;28;20090;-82
2024/03/16 01:24:55;;;;;;;3.42;2.08;;;;;;;;;;6300508;28;20130;-78
2024/03/16 01:27:57;;;;;;;3.90;2.17;;;;;;;;;;6306110;28;20044;-79
2024/03/16 01:30:59;;;;;;;3.88;1.98;;;;;;;;;;6302865;28;20063;-80
2024/03/16 01:34:01;;;;;;;5.90;2.33;;;;;;;;;;6305170;28;20468;-80
2024/03/16 01:37:03;;;;;;;5.47;2.72;;;;;;;;;;6307385;28;20045;-80
2024/03/16 01:40:06;;;;;;;3.67;2.33;;;;;;;;;;6304575;28;20059;-83
2024/03/16 01:43:12;;;;;;;6.38;2.50;;;;;;;;;;6282766;28;20052;-81
2024/03/16 01:46:15;;;;;;;4.18;2.33;;;;;;;;;;6281670;28;20037;-83
2024/03/16 01:49:17;;;;;;;5.05;2.33;;;;;;;;;;6280921;28;20063;-83
2024/03/16 01:52:20;;;;;;;6.30;2.22;;;;;;;;;;6295270;28;20048;-83
2024/03/16 01:55:22;;;;;;;4.55;2.63;;;;;;;;;;6305281;28;20063;-83
2024/03/16 01:58:27;;;;;;;5.97;2.70;;;;;;;;;;6285330;28;20037;-75
2024/03/16 02:01:29;;;;;;;3.92;2.45;;;;;;;;;;6310043;28;20096;-78
2024/03/16 02:04:31;;;;;;;4.80;2.88;;;;;;;;;;6295009;28;20044;-80
2024/03/16 02:07:36;;;;;;;5.30;3.17;;;;;;;;;;6279896;28;20605;-80
2024/03/16 02:10:39;;;;;;;7.30;3.78;;;;;;;;;;6299677;28;20433;-80
2024/03/16 02:13:40;;;;;;;5.85;3.50;;;;;;;;;;6306480;28;20032;-80
2024/03/16 02:16:44;;;;;;;9.38;3.50;;;;;;;;;;6301654;28;20048;-83
2024/03/16 02:19:47;;;;;;;;;;;;;;;;;;6281136;28;20048;-81
2024/03/16 02:22:49;;;;;;;7.25;3.25;;;;;;;;;;6310686;27;20359;-82
2024/03/16 02:25:51;;;;;;;7.13;3.40;;;;;;;;;;6289766;28;20052;-81
2024/03/16 02:28:53;;;;;;;4.38;2.97;;;;;;;;;;6283704;28;20051;-82
2024/03/16 02:31:54;;;;;;;8.07;3.08;;;;;;;;;;6287346;28;20049;-82
2024/03/16 02:34:56;;;;;;;5.53;2.90;;;;;;;;;;6287558;28;20068;-82
2024/03/16 02:37:58;;;;;;;6.22;3.05;;;;;;;;;;6288252;27;20051;-79
2024/03/16 02:41:00;;;;;;;6.63;3.15;;;;;;;;;;6307140;28;20036;-78
2024/03/16 02:44:02;;;;;;;6.72;3.22;;;;;;;;;;6306977;28;20619;-82
2024/03/16 02:47:04;;;;;;;8.57;3.78;;;;;;;;;;6310499;28;20048;-82
2024/03/16 02:50:10;;;;;;;8.27;3.63;;;;;;;;;;6303449;27;20099;-80
2024/03/16 02:53:12;;;;;;;8.77;3.22;;;;;;;;;;6313106;28;20049;-82
2024/03/16 02:56:15;;;;;;;;;;;;;;;;;;6312642;27;20040;-79
2024/03/16 02:59:16;;;;;;;8.02;3.45;;;;;;;;;;6306820;28;19938;-81
2024/03/16 03:02:22;;;;;;;6.90;3.78;;;;;;;;;;6308025;28;20044;-81
2024/03/16 03:05:24;;;;;;;9.93;4.32;;;;;;;;;;6302036;28;20429;-82
2024/03/16 03:08:26;;;;;;;9.00;3.85;;;;;;;;;;6303550;28;20450;-79
2024/03/16 03:11:27;;;;;;;9.60;4.03;;;;;;;;;;6304864;27;20052;-79
2024/03/16 03:14:29;;;;;;;10.27;4.38;;;;;;;;;;6335812;28;20044;-78
2024/03/16 03:17:31;;;;;;;10.68;4.22;;;;;;;;;;6318347;28;20048;-79
2024/03/16 03:20:33;;;;;;;10.20;4.65;;;;;;;;;;6311608;27;20044;-80
2024/03/16 03:23:36;;;;;;;11.38;4.88;;;;;;;;;;6305418;28;20122;-83
2024/03/16 03:26:38;;;;;;;11.57;5.00;;;;;;;;;;6320317;28;20032;-83
2024/03/16 03:29:39;;;;;;;12.55;4.95;;;;;;;;;;6306721;28;20070;-82
2024/03/16 03:32:41;;;;;;;10.50;4.55;;;;;;;;;;6302904;28;20054;-83
2024/03/16 03:35:43;;;;;;;11.07;5.05;;;;;;;;;;6308398;28;20208;-82
2024/03/16 03:38:45;;;;;;;12.30;5.47;;;;;;;;;;6299211;28;20051;-81
2024/03/16 03:41:46;;;;;;;10.88;4.50;;;;;;;;;;6302460;28;20051;-82
2024/03/16 03:45:00;;;;;;;13.38;4.40;;;;;;;;;;6306079;28;20051;-83
2024/03/16 03:48:24;;;;;;;;;;;;;;;;;;6301773;28;20048;-82
2024/03/16 03:51:23;;;;;;;8.57;3.85;;;;;;;;;;6290147;27;19936;-82
2024/03/16 03:54:25;;;;;;;8.48;3.78;;;;;;;;;;6305090;28;20040;-82
2024/03/16 03:57:27;;;;;;;6.40;3.60;;;;;;;;;;6305164;28;20051;-83
2024/03/16 04:00:28;;;;;;;8.32;3.50;;;;;;;;;;6300229;28;20045;-80
2024/03/16 04:03:30;;;;;;;8.43;4.05;;;;;;;;;;6291482;28;20058;-82
2024/03/16 04:06:32;;;;;;;10.70;3.88;;;;;;;;;;6309126;28;20040;-79
2024/03/16 04:09:34;;;;;;;7.97;3.72;;;;;;;;;;6303116;28;20080;-81
2024/03/16 04:12:35;;;;;;;6.80;3.33;;;;;;;;;;6306768;28;20054;-83
2024/03/16 04:15:37;;;;;;;7.18;3.78;;;;;;;;;;6289770;28;20052;-83
2024/03/16 04:18:39;;;;;;;7.40;3.67;;;;;;;;;;6301515;28;20508;-82
2024/03/16 04:21:43;;;;;;;9.35;3.90;;;;;;;;;;6301248;27;20129;-80
2024/03/16 04:24:45;;;;;;;8.00;3.55;;;;;;;;;;6306302;28;20058;-78
2024/03/16 04:27:46;;;;;;;5.40;3.33;;;;;;;;;;6316490;28;20064;-78
2024/03/16 04:30:48;;;;;;;6.68;3.55;;;;;;;;;;6307070;28;20950;-82
2024/03/16 04:33:51;;;;;;;6.70;3.25;;;;;;;;;;6303718;28;20186;-82
2024/03/16 04:36:53;;;;;;;6.30;3.28;;;;;;;;;;6301995;28;20042;-81
2024/03/16 04:39:55;;;;;;;6.82;2.95;;;;;;;;;;6308904;28;20040;-80
2024/03/16 04:42:57;;;;;;;7.43;2.78;;;;;;;;;;6302236;28;20047;-79
2024/03/16 04:45:59;;;;;;;7.30;2.78;;;;;;;;;;6302778;28;20050;-82
2024/03/16 04:49:01;;;;;;;5.78;2.45;;;;;;;;;;6298051;28;20048;-81
2024/03/16 04:52:02;;;;;;;7.00;2.40;;;;;;;;;;6303538;28;20040;-82
2024/03/16 04:55:04;;;;;;;5.90;2.45;;;;;;;;;;6304757;28;20049;-82
2024/03/16 04:58:07;;;;;;;4.03;2.17;;;;;;;;;;6305430;28;20051;-79
2024/03/16 05:01:09;;;;;;;;;;;;;;;;;;6302260;28;20937;-82
2024/03/16 05:04:12;;;;;;;2.45;1.70;;;;;;;;;;6299737;28;19984;-82
2024/03/16 05:07:14;;;;;;;3.78;2.17;;;;;;;;;;6290388;28;20533;-80
2024/03/16 05:10:17;;;;;;;4.60;2.20;;;;;;;;;;6284953;28;20068;-82
2024/03/16 05:13:19;;;;;;;6.90;2.00;;;;;;;;;;6297002;28;20071;-83
2024/03/16 05:16:21;;;;;;;3.00;2.05;;;;;;;;;;6305659;28;20036;-80
2024/03/16 05:19:25;;;;;;;2.97;1.80;;;;;;;;;;6304136;28;20076;-78
2024/03/16 05:22:29;;;;;;;5.72;3.45;;;;;;;;;;6306043;28;20079;-79
2024/03/16 05:25:31;;;;;;;5.75;2.85;;;;;;;;;;6309931;28;20052;-81
2024/03/16 05:28:33;;;;;;;5.28;2.47;;;;;;;;;;6336762;28;20040;-79
2024/03/16 05:31:36;;;;;;;7.32;2.90;;;;;;;;;;6336995;28;20058;-78
2024/03/16 05:34:39;;;;;;;7.35;3.38;;;;;;;;;;6321603;28;20034;-78
2024/03/16 05:37:41;;;;;;;9.95;3.50;;;;;;;;;;6331785;28;20048;-81
2024/03/16 05:40:45;;;;;;;5.53;2.97;;;;;;;;;;6307910;28;20052;-84
2024/03/16 05:43:47;;;;;;;8.45;3.20;;;;;;;;;;6309859;28;20124;-83
2024/03/16 05:46:49;;;;;;;7.85;3.00;;;;;;;;;;6307390;28;20056;-84
2024/03/16 05:49:51;;;;;;;5.22;2.67;;;;;;;;;;6306405;28;20044;-83
2024/03/16 05:52:53;;;;;;;6.90;2.92;;;;;;;;;;6306801;28;20047;-84
2024/03/16 05:55:54;;;;;;;6.93;3.30;;;;;;;;;;6308865;27;20052;-86
2024/03/16 05:58:57;;;;;;;7.72;3.42;;;;;;;;;;6299527;28;20132;-83
2024/03/16 06:01:59;;;;;;;7.18;3.42;;;;;;;;;;6294102;28;20051;-83
2024/03/16 06:05:01;;;;;;;3.88;2.42;;;;;;;;;;6308451;28;20158;-82
2024/03/16 06:08:05;;;;;;;6.70;2.42;;;;;;;;;;6303092;28;20044;-81
2024/03/16 06:11:08;;;;;;;6.38;2.60;;;;;;;;;;6306252;28;20048;-81
2024/03/16 06:14:09;;;;;;;3.27;1.90;;;;;;;;;;6309032;28;20142;-84
2024/03/16 06:17:11;;;;;;;3.63;1.52;;;;;;;;;;6307212;28;20859;-81
2024/03/16 06:20:15;;;;;;;5.18;1.58;;;;;;;;;;6302787;28;20048;-84
2024/03/16 06:23:17;;;;;;;8.50;1.95;;;;;;;;;;6319929;28;20053;-83
2024/03/16 06:26:19;;;;;;;3.00;1.70;;;;;;;;;;6313969;28;20052;-84
2024/03/16 06:29:25;;;;;;;4.40;2.08;;;;;;;;;;6316925;28;20052;-86
2024/03/16 06:32:28;;;;;;;4.47;2.40;;;;;;;;;;6309853;28;20078;-82
2024/03/16 06:35:30;;;;;;;4.05;2.70;;;;;;;;;;6315184;28;20056;-84
2024/03/16 06:38:32;;;;;;;5.90;3.27;;;;;;;;;;6296003;28;20054;-84
2024/03/16 06:41:34;;;;;;;3.95;2.60;;;;;;;;;;6316192;28;20052;-81
2024/03/16 06:44:36;;;;;;;5.07;2.25;;;;;;;;;;6301906;28;20063;-82
2024/03/16 06:47:38;;;;;;;2.90;1.90;;;;;;;;;;6312636;27;20041;-80
2024/03/16 06:50:40;;;;;;;4.15;2.33;;;;;;;;;;6339357;28;20047;-83
2024/03/16 06:53:41;;;;;;;5.07;2.35;;;;;;;;;;6311518;28;20047;-85
2024/03/16 06:56:43;;;;;;;3.90;2.50;;;;;;;;;;6319108;27;20246;-81
2024/03/16 06:59:45;;;;;;;4.55;2.28;;;;;;;;;;6312146;28;20055;-83
2024/03/16 07:02:46;;;;;;;2.75;1.90;;;;;;;;;;6310676;27;20282;-82
2024/03/16 07:05:48;;;;;;;3.80;2.08;;;;;;;;;;6317505;27;20483;-85
2024/03/16 07:08:50;;;;;;;1.77;1.60;;;;;;;;;;6313930;28;20538;-84
2024/03/16 07:11:53;;;;;;;3.15;1.30;;;;;;;;;;6330591;28;20044;-81
2024/03/16 07:14:55;;;;;;;1.70;1.40;;;;;;;;;;6337477;28;20027;-82
2024/03/16 07:17:57;;;;;;;3.35;1.38;;;;;;;;;;6313525;28;20055;-83
2024/03/16 07:20:59;;;;;;;2.88;1.30;;;;;;;;;;6316577;28;20044;-84
2024/03/16 07:24:01;;;;;;;2.83;1.80;;;;;;;;;;6312605;28;20059;-81
2024/03/16 07:27:05;;;;;;;2.07;1.57;;;;;;;;;;6312892;28;20036;-84
2024/03/16 07:30:07;;;;;;;2.67;1.20;;;;;;;;;;6307995;28;20048;-85
2024/03/16 07:33:10;;;;;;;3.40;1.10;;;;;;;;;;6301426;28;20426;-82
2024/03/16 07:36:12;;;;;;;2.00;1.00;;;;;;;;;;6311494;28;20045;-82
2024/03/16 07:39:15;;;;;;;4.05;1.35;;;;;;;;;;6298719;27;20048;-86
2024/03/16 07:42:17;;;;;;;2.57;0.80;;;;;;;;;;6318296;28;20103;-83
2024/03/16 07:45:21;;;;;;;2.60;0.80;;;;;;;;;;6303935;28;20045;-84
2024/03/16 07:48:25;;;;;;;3.05;1.10;;;;;;;;;;6299607;28;20755;-82
2024/03/16 07:51:30;;;;;;;1.70;0.88;;;;;;;;;;6320631;27;20557;-84
2024/03/16 07:54:33;;;;;;;4.70;0.85;;;;;;;;;;6317446;28;20111;-85
2024/03/16 07:57:35;;;;;;;2.47;0.80;;;;;;;;;;6312943;27;20587;-82
2024/03/16 08:00:37;;;;;;;2.28;0.70;;;;;;;;;;6316335;28;20051;-83
2024/03/16 08:03:38;;;;;;;0.60;0.50;;;;;;;;;;6308902;28;20048;-83
2024/03/16 08:06:40;;;;;;;1.00;0.50;;;;;;;;;;6306910;28;20069;-85
2024/03/16 08:09:43;;;;;;;1.00;0.70;;;;;;;;;;6304123;28;20052;-84
2024/03/16 08:12:45;;;;;;;1.02;0.50;;;;;;;;;;6307458;28;20043;-85
2024/03/16 08:15:47;;;;;;;1.17;0.60;;;;;;;;;;6306494;28;20547;-82
2024/03/16 08:18:49;;;;;;;1.65;0.50;;;;;;;;;;6308770;28;20051;-83
2024/03/16 08:21:50;;;;;;;1.20;0.60;;;;;;;;;;6312974;28;20051;-81
2024/03/16 08:24:52;;;;;;;1.13;0.50;;;;;;;;;;6307974;28;20067;-82
2024/03/16 08:27:54;;;;;;;1.88;0.80;;;;;;;;;;6297584;27;20502;-84
2024/03/16 08:30:56;;;;;;;0.47;0.47;;;;;;;;;;6306618;28;20143;-84
2024/03/16 08:33:58;;;;;;;2.20;0.65;;;;;;;;;;6303831;28;20040;-85
2024/03/16 08:37:00;;;;;;;0.77;0.70;;;;;;;;;;6291287;28;20417;-84
2024/03/16 08:40:11;;;;;;;0.65;0.60;;;;;;;;;;6310294;28;20047;-84
2024/03/16 08:43:13;;;;;;;0.45;0.38;;;;;;;;;;6305794;28;20048;-84
2024/03/16 08:46:15;;;;;;;0.98;0.60;;;;;;;;;;6305255;27;20494;-82
2024/03/16 08:49:17;;;;;;;0.40;0.40;;;;;;;;;;6299747;28;20116;-84
2024/03/16 08:52:19;;;;;;;0.30;0.30;;;;;;;;;;6315778;28;20063;-82
2024/03/16 08:55:23;;;;;;;1.55;0.50;;;;;;;;;;6291862;28;20442;-81
2024/03/16 08:58:25;;;;;;;;;;;;;;;;;;6313050;28;20063;-82
2024/03/16 09:01:26;;;;;;;0.43;0.40;;;;;;;;;;6311104;28;20020;-84
2024/03/16 09:04:28;;;;;;;0.65;0.30;;;;;;;;;;6314551;27;20036;-84
2024/03/16 09:07:30;;;;;;;0.90;0.68;;;;;;;;;;6320332;28;20079;-82
2024/03/16 09:10:32;;;;;;;1.35;0.80;;;;;;;;;;6320297;28;20048;-84
2024/03/16 09:13:33;;;;;;;1.50;1.20;;;;;;;;;;6312777;28;20040;-86
2024/03/16 09:16:40;;;;;;;1.20;0.95;;;;;;;;;;6318586;28;20052;-84
2024/03/16 09:19:42;;;;;;;1.50;1.23;;;;;;;;;;6294139;27;20059;-84
2024/03/16 09:22:43;;;;;;;1.33;1.23;;;;;;;;;;6296323;28;20048;-85
2024/03/16 09:25:45;;;;;;;1.48;1.08;;;;;;;;;;6318034;28;20043;-83
2024/03/16 09:28:48;;;;;;;;;;;;;;;;;;6323559;28;20141;-84
2024/03/16 09:31:50;;;;;;;2.38;1.40;;;;;;;;;;6318874;28;19995;-84
2024/03/16 09:34:52;;;;;;;2.70;1.20;;;;;;;;;;6333383;28;20040;-82
2024/03/16 09:37:54;;;;;;;2.17;1.30;;;;;;;;;;6321372;28;20062;-81
2024/03/16 09:40:55;;;;;;;5.03;1.50;;;;;;;;;;6339084;27;20042;-81
2024/03/16 09:43:58;;;;;;;2.72;1.70;;;;;;;;;;6315876;28;20044;-82
2024/03/16 09:47:00;;;;;;;2.28;1.40;;;;;;;;;;6326867;28;20029;-83
2024/03/16 09:50:05;;;;;;;2.17;1.15;;;;;;;;;;6317733;27;20092;-82
2024/03/16 09:53:09;;;;;;;2.05;1.65;;;;;;;;;;6335690;28;20032;-82
2024/03/16 09:56:11;;;;;;;2.60;1.60;;;;;;;;;;6298048;28;20520;-83
2024/03/16 09:59:19;;;;;;;2.10;1.45;;;;;;;;;;6333985;28;20031;-82
2024/03/16 10:02:20;;;;;;;2.67;1.80;;;;;;;;;;6319201;28;20721;-85
2024/03/16 10:05:21;;;;;;;2.50;1.80;;;;;;;;;;6290953;28;20052;-85
2024/03/16 10:08:22;;;;;;;2.50;1.70;;;;;;;;;;6296275;28;20487;-86
2024/03/16 10:11:22;;;;;;;3.38;1.70;;;;;;;;;;6292864;28;20043;-86
2024/03/16 10:14:25;;;;;;;2.00;1.52;;;;;;;;;;6317975;28;20032;-82
2024/03/16 10:17:26;;;;;;;2.17;1.35;;;;;;;;;;6307767;28;20040;-84
2024/03/16 10:20:27;;;;;;;3.72;1.42;;;;;;;;;;6296996;28;20058;-86
2024/03/16 10:23:29;;;;;;;2.28;1.08;;;;;;;;;;6299554;27;20040;-85
2024/03/16 10:26:30;;;;;;;2.20;1.13;;;;;;;;;;6283620;28;20048;-85
2024/03/16 10:29:31;;;;;;;2.28;1.20;;;;;;;;;;6297491;28;20051;-85
2024/03/16 10:32:33;;;;;;;3.88;1.20;;;;;;;;;;6280961;28;20415;-85
2024/03/16 10:35:34;;;;;;;3.85;1.13;;;;;;;;;;6291248;27;20074;-83
2024/03/16 10:38:35;;;;;;;1.65;1.20;;;;;;;;;;6299448;28;20038;-84
2024/03/16 10:41:37;;;;;;;1.27;1.15;;;;;;;;;;6302185;28;20023;-83
2024/03/16 10:44:39;;;;;;;1.40;1.10;;;;;;;;;;6315762;28;20046;-82
2024/03/16 10:47:42;;;;;;;1.33;1.08;;;;;;;;;;6311612;28;20040;-85
2024/03/16 10:50:43;;;;;;;3.33;1.33;;;;;;;;;;6297735;28;20056;-84
2024/03/16 10:53:48;;;;;;;1.23;0.90;;;;;;;;;;6270919;28;20453;-83
2024/03/16 10:56:49;;;;;;;3.08;1.30;;;;;;;;;;6260263;28;20050;-80
2024/03/16 10:59:49;;;;;;;3.05;1.17;;;;;;;;;;6264471;28;20059;-83
2024/03/16 11:03:00;;;;;;;2.55;1.50;;;;;;;;;;6277824;28;20027;-79
2024/03/16 11:06:09;;;;;;;1.92;1.05;;;;;;;;;;6296096;28;20049;-79
2024/03/16 11:09:20;;;;;;;1.35;1.20;;;;;;;;;;6266179;28;20041;-81
2024/03/16 11:12:44;;;;;;;2.55;1.15;;;;;;;;;;6285169;28;20059;-82
2024/03/16 11:15:45;;;;;;;1.58;1.10;;;;;;;;;;6306881;28;20048;-82
2024/03/16 11:18:48;;;;;;;2.22;1.00;;;;;;;;;;6266647;28;20798;-81
2024/03/16 11:21:53;;;;;;;2.10;1.20;;;;;;;;;;6303733;28;20044;-81
2024/03/16 11:24:54;;;;;;;1.23;1.05;;;;;;;;;;6281983;27;20055;-82
2024/03/16 11:27:55;;;;;;;1.42;1.00;;;;;;;;;;6301126;28;20036;-82
2024/03/16 11:31:28;;;;;;;1.70;1.02;;;;;;;;;;6268710;28;20040;-81
2024/03/16 11:34:30;;;;;;;1.63;0.90;;;;;;;;;;6305961;28;20048;-80
2024/03/16 11:37:31;;;;;;;1.83;1.23;;;;;;;;;;6321144;28;20050;-80
2024/03/16 11:40:32;;;;;;;1.00;0.90;;;;;;;;;;6287552;28;20054;-83
2024/03/16 11:43:36;;;;;;;2.72;1.20;;;;;;;;;;6304664;28;20076;-80
2024/03/16 11:46:47;;;;;;;;;;;;;;;;;;6279053;28;20048;-84
2024/03/16 11:49:51;;;;;;;2.10;1.40;;;;;;;;;;6258896;28;19947;-83
2024/03/16 11:52:54;;;;;;;2.17;1.27;;;;;;;;;;6268921;28;20640;-82
2024/03/16 11:55:55;;;;;;;2.55;1.38;;;;;;;;;;6247698;28;20053;-83
2024/03/16 11:58:57;;;;;;;5.45;2.40;;;;;;;;;;6266610;28;20041;-82
2024/03/16 12:01:58;;;;;;;4.85;2.13;;;;;;;;;;6284611;28;20057;-83
2024/03/16 12:04:59;;;;;;;3.40;2.40;;;;;;;;;;6290368;28;20048;-82
2024/03/16 12:08:00;;;;;;;5.88;2.63;;;;;;;;;;6271818;28;20424;-82
2024/03/16 12:11:01;;;;;;;7.53;5.28;;;;;;;;;;6310897;28;20040;-83
2024/03/16 12:14:08;;;;;;;3.85;2.60;;;;;;;;;;6303215;28;20051;-83
2024/03/16 12:17:09;;;;;;;3.17;2.30;;;;;;;;;;6256418;28;20041;-81
2024/03/16 12:20:16;;;;;;;8.68;3.83;;;;;;;;;;6279474;28;20493;-82
2024/03/16 12:23:20;;;;;;;4.93;2.35;;;;;;;;;;6266252;28;20055;-83
2024/03/16 12:26:29;;;;;;;3.13;1.75;;;;;;;;;;6277599;28;20044;-82
2024/03/16 12:29:33;;;;;;;3.83;1.90;;;;;;;;;;6274549;28;21356;-81
2024/03/16 12:32:34;;;;;;;27.48;9.65;;;;;;;;;;6282691;28;20048;-83
2024/03/16 12:35:35;;;;;;;29.30;10.65;;;;;;;;;;6299452;28;20036;-83
2024/03/16 12:38:37;;;;;;;3.35;2.13;;;;;;;;;;6269952;28;20051;-83
2024/03/16 12:41:40;;;;;;;14.55;5.88;;;;;;;;;;6259578;28;20108;-81
2024/03/16 12:44:43;;;;;;;4.65;2.75;;;;;;;;;;6263077;28;20055;-83
2024/03/16 12:47:44;;;;;;;5.63;2.63;;;;;;;;;;6260277;28;20048;-81
2024/03/16 12:50:45;;;;;;;66.47;18.65;;;;;;;;;;6288113;28;20105;-82
2024/03/16 12:53:46;;;;;;;3.50;2.60;;;;;;;;;;6311950;28;20165;-82
2024/03/16 12:56:51;;;;;;;31.15;10.00;;;;;;;;;;6312098;28;20059;-81
2024/03/16 12:59:51;;;;;;;14.30;5.82;;;;;;;;;;6311635;28;20029;-82
2024/03/16 13:02:52;;;;;;;25.30;9.68;;;;;;;;;;6313466;28;20044;-81
2024/03/16 13:05:54;;;;;;;75.30;21.90;;;;;;;;;;6312092;27;20036;-83
2024/03/16 13:08:55;;;;;;;4.97;2.80;;;;;;;;;;6301596;28;20095;-82
2024/03/16 13:11:56;;;;;;;55.55;17.13;;;;;;;;;;6325445;28;20047;-83
2024/03/16 13:14:56;;;;;;;3.20;2.20;;;;;;;;;;6318710;28;20044;-83
2024/03/16 13:17:57;;;;;;;39.30;12.98;;;;;;;;;;6310097;28;20050;-83
2024/03/16 13:20:58;;;;;;;8.82;3.17;;;;;;;;;;6325508;28;20043;-82
2024/03/16 13:23:59;;;;;;;8.30;3.50;;;;;;;;;;6312693;28;20035;-82
2024/03/16 13:27:02;;;;;;;85.10;29.50;;;;;;;;;;6314992;28;20044;-84
2024/03/16 13:30:04;;;;;;;36.70;13.48;;;;;;;;;;6305209;27;20052;-84
2024/03/16 13:33:08;;;;;;;90.28;26.30;;;;;;;;;;6276844;28;20142;-82
2024/03/16 13:36:09;;;;;;;16.00;5.93;;;;;;;;;;6281046;27;20048;-81
2024/03/16 13:39:10;;;;;;;15.55;5.18;;;;;;;;;;6288006;28;20070;-83
2024/03/16 13:42:13;;;;;;;13.25;5.15;;;;;;;;;;6316130;28;20044;-83
2024/03/16 13:45:14;;;;;;;14.30;5.70;;;;;;;;;;6290786;27;20054;-83
2024/03/16 13:48:15;;;;;;;76.18;21.67;;;;;;;;;;6323433;28;20067;-82
2024/03/16 13:51:16;;;;;;;32.47;9.07;;;;;;;;;;6313215;27;20049;-82
2024/03/16 13:54:18;;;;;;;7.47;2.88;;;;;;;;;;6317224;28;20059;-84
2024/03/16 13:57:19;;;;;;;8.18;3.60;;;;;;;;;;6319920;28;20062;-81
2024/03/16 14:00:20;;;;;;;21.80;8.48;;;;;;;;;;6314311;28;20055;-82
2024/03/16 14:03:25;;;;;;;26.77;9.32;;;;;;;;;;6308779;28;20043;-83
2024/03/16 14:06:27;;;;;;;20.30;7.43;;;;;;;;;;6319588;28;20044;-85
2024/03/16 14:09:28;;;;;;;51.10;16.60;;;;;;;;;;6305064;28;20103;-83
2024/03/16 14:12:29;;;;;;;14.50;5.80;;;;;;;;;;6311717;28;20084;-82
2024/03/16 14:15:30;;;;;;;13.40;5.85;;;;;;;;;;6311732;28;20044;-83
2024/03/16 14:18:35;;;;;;;11.38;4.15;;;;;;;;;;6302986;28;20055;-84
2024/03/16 14:21:35;;;;;;;11.63;5.28;;;;;;;;;;6302308;28;20042;-85
2024/03/16 14:24:41;;;;;;;37.90;14.15;;;;;;;;;;6276486;28;20103;-84
2024/03/16 14:27:43;;;;;;;12.15;5.75;;;;;;;;;;6293120;28;20052;-85
2024/03/16 14:30:44;;;;;;;12.30;4.70;;;;;;;;;;6303905;28;20059;-82
2024/03/16 14:33:45;;;;;;;15.95;6.82;;;;;;;;;;6285752;28;20040;-82
2024/03/16 14:36:49;;;;;;;4.40;2.60;;;;;;;;;;6284276;28;20044;-82
2024/03/16 14:39:50;;;;;;;11.05;6.38;;;;;;;;;;6305975;28;20043;-81
2024/03/16 14:42:51;;;;;;;10.63;5.05;;;;;;;;;;6294649;28;20047;-80
2024/03/16 14:45:52;;;;;;;5.15;3.08;;;;;;;;;;6295592;28;20051;-81
2024/03/16 14:48:53;;;;;;;6.72;4.10;;;;;;;;;;6293267;28;20059;-82
2024/03/16 14:51:55;;;;;;;4.10;2.22;;;;;;;;;;6285607;28;20051;-81
2024/03/16 14:54:58;;;;;;;12.45;5.50;;;;;;;;;;6275237;28;20036;-82
2024/03/16 14:58:00;;;;;;;16.73;7.22;;;;;;;;;;6301166;28;20048;-82
2024/03/16 15:01:00;;;;;;;6.65;4.20;;;;;;;;;;6270911;28;20048;-83
2024/03/16 15:04:04;;;;;;;12.05;5.10;;;;;;;;;;6286271;28;20043;-82
2024/03/16 15:07:05;;;;;;;7.40;4.97;;;;;;;;;;6282000;28;20051;-82
2024/03/16 15:10:06;;;;;;;11.68;6.18;;;;;;;;;;6286700;28;20040;-82
2024/03/16 15:13:07;;;;;;;12.52;6.00;;;;;;;;;;6263357;28;20498;-81
2024/03/16 15:16:08;;;;;;;21.77;9.60;;;;;;;;;;6292937;28;20068;-82
2024/03/16 15:19:09;;;;;;;8.50;4.10;;;;;;;;;;6265370;28;20106;-87
2024/03/16 15:22:10;;;;;;;10.05;5.43;;;;;;;;;;6286094;28;20036;-82
2024/03/16 15:25:19;;;;;;;8.73;4.85;;;;;;;;;;6283716;28;20322;-83
2024/03/16 15:28:28;;;;;;;15.38;6.40;;;;;;;;;;6277193;28;20051;-82
2024/03/16 15:31:29;;;;;;;10.68;6.00;;;;;;;;;;6268433;28;20048;-81
2024/03/16 15:34:30;;;;;;;7.78;4.32;;;;;;;;;;6258524;28;20442;-83
2024/03/16 15:37:30;;;;;;;9.18;4.47;;;;;;;;;;6282911;28;20056;-81
2024/03/16 15:40:32;;;;;;;9.80;5.28;;;;;;;;;;6269513;28;20056;-83
2024/03/16 15:43:33;;;;;;;9.05;4.70;;;;;;;;;;6266774;28;20421;-82
2024/03/16 15:46:35;;;;;;;5.10;3.60;;;;;;;;;;6261610;28;20056;-78
2024/03/16 15:49:36;;;;;;;5.45;3.42;;;;;;;;;;6268331;28;20060;-83
2024/03/16 15:52:37;;;;;;;25.08;11.63;;;;;;;;;;6286315;28;20108;-84
2024/03/16 15:55:42;;;;;;;14.25;6.80;;;;;;;;;;6266038;28;20862;-81
2024/03/16 15:58:43;;;;;;;8.60;3.78;;;;;;;;;;6287332;28;20049;-80
2024/03/16 16:01:44;;;;;;;4.78;3.10;;;;;;;;;;6276664;28;20138;-80
2024/03/16 16:04:45;;;;;;;12.73;5.43;;;;;;;;;;6280045;28;20043;-80
2024/03/16 16:07:46;;;;;;;4.30;2.83;;;;;;;;;;6307964;28;20088;-82
2024/03/16 16:10:47;;;;;;;3.30;2.28;;;;;;;;;;6290586;28;20047;-81
2024/03/16 16:13:48;;;;;;;4.32;2.70;;;;;;;;;;6268942;28;20497;-82
2024/03/16 16:16:49;;;;;;;2.97;2.53;;;;;;;;;;6271774;28;20052;-82
2024/03/16 16:19:50;;;;;;;5.93;2.38;;;;;;;;;;6289778;28;20040;-81
2024/03/16 16:22:53;;;;;;;5.43;2.40;;;;;;;;;;6302519;28;20043;-82
2024/03/16 16:25:54;;;;;;;5.25;2.50;;;;;;;;;;6291620;28;20055;-82
2024/03/16 16:28:55;;;;;;;5.50;3.08;;;;;;;;;;6283132;28;20048;-81
2024/03/16 16:31:56;;;;;;;2.80;2.30;;;;;;;;;;6259115;28;20094;-81
2024/03/16 16:34:56;;;;;;;3.03;2.00;;;;;;;;;;6278858;28;20044;-81
2024/03/16 16:37:57;;;;;;;4.18;2.00;;;;;;;;;;6269453;28;20048;-81
2024/03/16 16:40:58;;;;;;;4.43;2.03;;;;;;;;;;6285599;28;20040;-82
2024/03/16 16:44:00;;;;;;;4.00;2.20;;;;;;;;;;6302586;28;20147;-80
2024/03/16 16:47:01;;;;;;;4.18;2.28;;;;;;;;;;6291495;28;20143;-80
2024/03/16 16:50:03;;;;;;;3.08;2.70;;;;;;;;;;6283219;28;20876;-81
2024/03/16 16:53:04;;;;;;;3.78;2.10;;;;;;;;;;6276050;28;20047;-81
2024/03/16 16:56:05;;;;;;;3.80;2.33;;;;;;;;;;6283911;28;20044;-83
2024/03/16 16:59:06;;;;;;;4.55;2.25;;;;;;;;;;6299731;28;20055;-81
2024/03/16 17:02:08;;;;;;;4.75;2.88;;;;;;;;;;6299828;28;20040;-81
2024/03/16 17:05:17;;;;;;;4.30;2.75;;;;;;;;;;6285163;28;20044;-81
2024/03/16 17:08:18;;;;;;;10.75;6.75;;;;;;;;;;6295225;28;20048;-83
2024/03/16 17:11:24;;;;;;;7.90;4.75;;;;;;;;;;6292371;28;20054;-82
2024/03/16 17:14:24;;;;;;;12.38;7.32;;;;;;;;;;6299177;27;20051;-82
2024/03/16 17:17:27;;;;;;;8.25;5.00;;;;;;;;;;6288038;28;20044;-83
2024/03/16 17:20:28;;;;;;;4.50;2.75;;;;;;;;;;6265133;28;20048;-84
2024/03/16 17:23:29;;;;;;;3.92;2.00;;;;;;;;;;6289045;28;20071;-81
2024/03/16 17:26:30;;;;;;;5.25;2.25;;;;;;;;;;6293918;28;20044;-84
2024/03/16 17:29:32;;;;;;;4.95;1.90;;;;;;;;;;6300128;28;20623;-82
2024/03/16 17:32:33;;;;;;;4.17;2.03;;;;;;;;;;6298684;28;20066;-82
2024/03/16 17:35:36;;;;;;;3.35;2.00;;;;;;;;;;6283524;28;20451;-81
2024/03/16 17:38:37;;;;;;;;;;;;;;;;;;6290647;28;20117;-81
2024/03/16 17:41:38;;;;;;;3.35;1.83;;;;;;;;;;6287325;28;19920;-83
2024/03/16 17:44:38;;;;;;;3.63;2.67;;;;;;;;;;6305825;28;20059;-82
2024/03/16 17:47:40;;;;;;;4.85;2.55;;;;;;;;;;6295370;28;20187;-82
2024/03/16 17:50:41;;;;;;;5.05;3.08;;;;;;;;;;6306890;28;20045;-82
2024/03/16 17:53:41;;;;;;;8.82;3.85;;;;;;;;;;6279759;28;20059;-81
2024/03/16 17:56:42;;;;;;;7.18;3.40;;;;;;;;;;6286597;28;20097;-80
2024/03/16 17:59:43;;;;;;;6.10;2.55;;;;;;;;;;6272784;27;20046;-81
2024/03/16 18:02:44;;;;;;;4.60;2.58;;;;;;;;;;6277574;27;20039;-79
2024/03/16 18:05:45;;;;;;;6.38;4.05;;;;;;;;;;6283751;27;20048;-79
2024/03/16 18:08:46;;;;;;;4.40;2.40;;;;;;;;;;6298205;28;20061;-81
2024/03/16 18:11:48;;;;;;;7.07;2.30;;;;;;;;;;6299479;28;20044;-78
2024/03/16 18:14:52;;;;;;;4.68;2.35;;;;;;;;;;6284994;28;20043;-78